sensor_id;sensor_type;location;lat;lon;timestamp;P1;durP1;ratioP1;P2;durP2;ratioP2
11907;SDS011;6014;47.690;9.130;2023-04-20T00:01:58;6.23;;;2.93;;
11907;SDS011;6014;47.690;9.130;2023-04-20T00:04:28;5.50;;;2.90;;
11907;SDS011;6014;47.690;9.130;2023-04-20T00:06:57;6.10;;;3.17;;
11907;SDS011;6014;47.690;9.130;2023-04-20T00:09:25;5.63;;;3.30;;
11907;SDS011;6014;47.690;9.130;2023-04-20T00:12:05;5.07;;;3.40;;
11907;SDS011;6014;47.690;9.130;2023-04-20T00:14:41;5.30;;;2.87;;
11907;SDS011;6014;47.690;9.130;2023-04-20T00:17:09;5.60;;;3.20;;
11907;SDS011;6014;47.690;9.130;2023-04-20T00:19:37;5.43;;;3.47;;
11907;SDS011;6014;47.690;9.130;2023-04-20T00:22:05;6.90;;;3.40;;
11907;SDS011;6014;47.690;9.130;2023-04-20T00:24:34;5.63;;;3.57;;
11907;SDS011;6014;47.690;9.130;2023-04-20T00:27:02;6.40;;;3.03;;
11907;SDS011;6014;47.690;9.130;2023-04-20T00:29:32;5.60;;;3.07;;
11907;SDS011;6014;47.690;9.130;2023-04-20T00:32:00;5.63;;;2.87;;
11907;SDS011;6014;47.690;9.130;2023-04-20T00:34:28;5.83;;;3.13;;
11907;SDS011;6014;47.690;9.130;2023-04-20T00:36:56;5.27;;;3.00;;
11907;SDS011;6014;47.690;9.130;2023-04-20T00:39:24;5.27;;;2.80;;
11907;SDS011;6014;47.690;9.130;2023-04-20T00:41:52;6.17;;;3.17;;
11907;SDS011;6014;47.690;9.130;2023-04-20T00:44:22;5.63;;;3.33;;
11907;SDS011;6014;47.690;9.130;2023-04-20T00:46:50;5.30;;;2.63;;
11907;SDS011;6014;47.690;9.130;2023-04-20T00:49:21;6.13;;;3.27;;
11907;SDS011;6014;47.690;9.130;2023-04-20T00:51:49;5.93;;;3.30;;
11907;SDS011;6014;47.690;9.130;2023-04-20T00:54:17;6.27;;;3.50;;
11907;SDS011;6014;47.690;9.130;2023-04-20T00:56:48;5.73;;;3.40;;
11907;SDS011;6014;47.690;9.130;2023-04-20T00:59:18;6.00;;;3.17;;
11907;SDS011;6014;47.690;9.130;2023-04-20T01:01:50;6.00;;;2.77;;
11907;SDS011;6014;47.690;9.130;2023-04-20T01:04:18;4.97;;;2.97;;
11907;SDS011;6014;47.690;9.130;2023-04-20T01:06:48;5.80;;;3.20;;
11907;SDS011;6014;47.690;9.130;2023-04-20T01:09:17;6.13;;;3.40;;
11907;SDS011;6014;47.690;9.130;2023-04-20T01:11:46;4.87;;;2.40;;
11907;SDS011;6014;47.690;9.130;2023-04-20T01:14:14;4.77;;;2.70;;
11907;SDS011;6014;47.690;9.130;2023-04-20T01:16:42;5.47;;;3.00;;
11907;SDS011;6014;47.690;9.130;2023-04-20T01:19:13;6.80;;;2.90;;
11907;SDS011;6014;47.690;9.130;2023-04-20T01:21:42;5.70;;;3.27;;
11907;SDS011;6014;47.690;9.130;2023-04-20T01:24:11;6.27;;;3.43;;
11907;SDS011;6014;47.690;9.130;2023-04-20T01:26:39;5.53;;;3.03;;
11907;SDS011;6014;47.690;9.130;2023-04-20T01:29:09;5.50;;;3.07;;
11907;SDS011;6014;47.690;9.130;2023-04-20T01:31:37;5.43;;;3.27;;
11907;SDS011;6014;47.690;9.130;2023-04-20T01:34:05;8.67;;;3.47;;
11907;SDS011;6014;47.690;9.130;2023-04-20T01:36:36;5.83;;;3.10;;
11907;SDS011;6014;47.690;9.130;2023-04-20T01:39:12;5.23;;;3.00;;
11907;SDS011;6014;47.690;9.130;2023-04-20T01:41:40;5.40;;;2.97;;
11907;SDS011;6014;47.690;9.130;2023-04-20T01:44:09;6.60;;;3.57;;
11907;SDS011;6014;47.690;9.130;2023-04-20T01:46:41;5.67;;;3.50;;
11907;SDS011;6014;47.690;9.130;2023-04-20T01:49:09;5.37;;;3.20;;
11907;SDS011;6014;47.690;9.130;2023-04-20T01:51:38;8.43;;;3.20;;
11907;SDS011;6014;47.690;9.130;2023-04-20T01:54:06;7.33;;;3.37;;
11907;SDS011;6014;47.690;9.130;2023-04-20T01:56:35;7.87;;;3.13;;
11907;SDS011;6014;47.690;9.130;2023-04-20T01:59:10;7.50;;;3.47;;
11907;SDS011;6014;47.690;9.130;2023-04-20T02:01:40;7.50;;;3.67;;
11907;SDS011;6014;47.690;9.130;2023-04-20T02:04:08;7.03;;;3.97;;
11907;SDS011;6014;47.690;9.130;2023-04-20T02:06:36;7.30;;;3.30;;
11907;SDS011;6014;47.690;9.130;2023-04-20T02:09:04;5.97;;;3.47;;
11907;SDS011;6014;47.690;9.130;2023-04-20T02:11:35;5.73;;;3.17;;
11907;SDS011;6014;47.690;9.130;2023-04-20T02:14:03;6.07;;;3.30;;
11907;SDS011;6014;47.690;9.130;2023-04-20T02:16:31;5.43;;;3.23;;
11907;SDS011;6014;47.690;9.130;2023-04-20T02:19:00;7.63;;;3.47;;
11907;SDS011;6014;47.690;9.130;2023-04-20T02:21:29;9.63;;;3.73;;
11907;SDS011;6014;47.690;9.130;2023-04-20T02:23:57;5.97;;;3.37;;
11907;SDS011;6014;47.690;9.130;2023-04-20T02:26:41;6.97;;;3.37;;
11907;SDS011;6014;47.690;9.130;2023-04-20T02:29:09;7.00;;;3.77;;
11907;SDS011;6014;47.690;9.130;2023-04-20T02:31:37;6.40;;;3.40;;
11907;SDS011;6014;47.690;9.130;2023-04-20T02:34:05;5.57;;;3.30;;
11907;SDS011;6014;47.690;9.130;2023-04-20T02:36:41;5.30;;;3.03;;
11907;SDS011;6014;47.690;9.130;2023-04-20T02:39:09;7.20;;;3.63;;
11907;SDS011;6014;47.690;9.130;2023-04-20T02:41:37;7.90;;;3.80;;
11907;SDS011;6014;47.690;9.130;2023-04-20T02:44:08;5.33;;;3.33;;
11907;SDS011;6014;47.690;9.130;2023-04-20T02:46:36;5.93;;;3.67;;
11907;SDS011;6014;47.690;9.130;2023-04-20T02:49:04;6.20;;;3.37;;
11907;SDS011;6014;47.690;9.130;2023-04-20T02:51:32;5.50;;;3.10;;
11907;SDS011;6014;47.690;9.130;2023-04-20T02:54:00;6.07;;;3.17;;
11907;SDS011;6014;47.690;9.130;2023-04-20T02:56:28;7.40;;;4.13;;
11907;SDS011;6014;47.690;9.130;2023-04-20T02:58:58;6.20;;;3.30;;
11907;SDS011;6014;47.690;9.130;2023-04-20T03:04:01;6.37;;;3.50;;
11907;SDS011;6014;47.690;9.130;2023-04-20T03:06:30;5.57;;;3.57;;
11907;SDS011;6014;47.690;9.130;2023-04-20T03:08:58;6.73;;;4.10;;
11907;SDS011;6014;47.690;9.130;2023-04-20T03:11:26;6.87;;;3.90;;
11907;SDS011;6014;47.690;9.130;2023-04-20T03:13:54;7.97;;;3.90;;
11907;SDS011;6014;47.690;9.130;2023-04-20T03:16:22;6.17;;;3.67;;
11907;SDS011;6014;47.690;9.130;2023-04-20T03:18:52;7.43;;;4.00;;
11907;SDS011;6014;47.690;9.130;2023-04-20T03:21:25;6.37;;;3.97;;
11907;SDS011;6014;47.690;9.130;2023-04-20T03:23:54;5.67;;;3.13;;
11907;SDS011;6014;47.690;9.130;2023-04-20T03:26:29;9.50;;;4.13;;
11907;SDS011;6014;47.690;9.130;2023-04-20T03:28:58;7.50;;;3.80;;
11907;SDS011;6014;47.690;9.130;2023-04-20T03:31:27;6.13;;;3.63;;
11907;SDS011;6014;47.690;9.130;2023-04-20T03:33:57;6.53;;;3.67;;
11907;SDS011;6014;47.690;9.130;2023-04-20T03:36:27;7.60;;;4.27;;
11907;SDS011;6014;47.690;9.130;2023-04-20T03:38:55;6.90;;;4.30;;
11907;SDS011;6014;47.690;9.130;2023-04-20T03:41:23;9.03;;;4.53;;
11907;SDS011;6014;47.690;9.130;2023-04-20T03:43:53;8.10;;;3.90;;
11907;SDS011;6014;47.690;9.130;2023-04-20T03:46:21;6.63;;;3.50;;
11907;SDS011;6014;47.690;9.130;2023-04-20T03:48:49;6.07;;;3.73;;
11907;SDS011;6014;47.690;9.130;2023-04-20T03:51:19;7.27;;;3.80;;
11907;SDS011;6014;47.690;9.130;2023-04-20T03:53:51;7.67;;;4.43;;
11907;SDS011;6014;47.690;9.130;2023-04-20T03:56:20;6.60;;;3.90;;
11907;SDS011;6014;47.690;9.130;2023-04-20T03:58:48;8.13;;;3.53;;
11907;SDS011;6014;47.690;9.130;2023-04-20T04:01:16;5.73;;;3.73;;
11907;SDS011;6014;47.690;9.130;2023-04-20T04:03:46;6.60;;;4.10;;
11907;SDS011;6014;47.690;9.130;2023-04-20T04:06:15;8.47;;;4.23;;
11907;SDS011;6014;47.690;9.130;2023-04-20T04:09:00;7.27;;;3.70;;
11907;SDS011;6014;47.690;9.130;2023-04-20T04:11:28;8.37;;;4.00;;
11907;SDS011;6014;47.690;9.130;2023-04-20T04:13:56;7.83;;;4.10;;
11907;SDS011;6014;47.690;9.130;2023-04-20T04:16:26;6.70;;;4.20;;
11907;SDS011;6014;47.690;9.130;2023-04-20T04:18:54;6.87;;;4.23;;
11907;SDS011;6014;47.690;9.130;2023-04-20T04:21:22;7.30;;;4.07;;
11907;SDS011;6014;47.690;9.130;2023-04-20T04:24:01;8.07;;;4.23;;
11907;SDS011;6014;47.690;9.130;2023-04-20T04:26:29;6.90;;;4.20;;
11907;SDS011;6014;47.690;9.130;2023-04-20T04:28:58;7.07;;;4.13;;
11907;SDS011;6014;47.690;9.130;2023-04-20T04:31:27;8.10;;;4.67;;
11907;SDS011;6014;47.690;9.130;2023-04-20T04:33:55;6.60;;;4.00;;
11907;SDS011;6014;47.690;9.130;2023-04-20T04:36:23;6.53;;;3.97;;
11907;SDS011;6014;47.690;9.130;2023-04-20T04:38:52;7.93;;;4.57;;
11907;SDS011;6014;47.690;9.130;2023-04-20T04:41:22;8.00;;;4.97;;
11907;SDS011;6014;47.690;9.130;2023-04-20T04:43:50;7.27;;;4.23;;
11907;SDS011;6014;47.690;9.130;2023-04-20T04:46:18;8.20;;;4.60;;
11907;SDS011;6014;47.690;9.130;2023-04-20T04:48:46;7.67;;;4.83;;
11907;SDS011;6014;47.690;9.130;2023-04-20T04:51:15;7.53;;;4.60;;
11907;SDS011;6014;47.690;9.130;2023-04-20T04:53:42;7.77;;;4.80;;
11907;SDS011;6014;47.690;9.130;2023-04-20T04:58:55;7.03;;;4.33;;
11907;SDS011;6014;47.690;9.130;2023-04-20T05:01:23;5.97;;;3.73;;
11907;SDS011;6014;47.690;9.130;2023-04-20T05:03:51;9.57;;;4.67;;
11907;SDS011;6014;47.690;9.130;2023-04-20T05:06:19;6.57;;;4.63;;
11907;SDS011;6014;47.690;9.130;2023-04-20T05:08:47;7.20;;;4.40;;
11907;SDS011;6014;47.690;9.130;2023-04-20T05:11:15;9.67;;;4.43;;
11907;SDS011;6014;47.690;9.130;2023-04-20T05:13:45;8.53;;;4.90;;
11907;SDS011;6014;47.690;9.130;2023-04-20T05:16:13;7.50;;;4.60;;
11907;SDS011;6014;47.690;9.130;2023-04-20T05:21:20;8.27;;;4.57;;
11907;SDS011;6014;47.690;9.130;2023-04-20T05:23:48;10.23;;;4.50;;
11907;SDS011;6014;47.690;9.130;2023-04-20T05:26:16;8.23;;;4.70;;
11907;SDS011;6014;47.690;9.130;2023-04-20T05:28:47;7.10;;;4.40;;
11907;SDS011;6014;47.690;9.130;2023-04-20T05:31:16;7.50;;;4.97;;
11907;SDS011;6014;47.690;9.130;2023-04-20T05:33:48;7.53;;;4.43;;
11907;SDS011;6014;47.690;9.130;2023-04-20T05:36:16;7.60;;;4.37;;
11907;SDS011;6014;47.690;9.130;2023-04-20T05:38:44;9.30;;;4.37;;
11907;SDS011;6014;47.690;9.130;2023-04-20T05:41:12;8.10;;;4.17;;
11907;SDS011;6014;47.690;9.130;2023-04-20T05:43:40;7.17;;;4.73;;
11907;SDS011;6014;47.690;9.130;2023-04-20T05:46:10;8.47;;;5.13;;
11907;SDS011;6014;47.690;9.130;2023-04-20T05:48:38;8.80;;;5.40;;
11907;SDS011;6014;47.690;9.130;2023-04-20T05:51:10;7.20;;;4.87;;
11907;SDS011;6014;47.690;9.130;2023-04-20T05:53:38;8.13;;;5.33;;
11907;SDS011;6014;47.690;9.130;2023-04-20T05:56:06;7.53;;;5.13;;
11907;SDS011;6014;47.690;9.130;2023-04-20T05:58:35;10.60;;;5.50;;
11907;SDS011;6014;47.690;9.130;2023-04-20T06:01:11;10.17;;;5.57;;
11907;SDS011;6014;47.690;9.130;2023-04-20T06:03:39;9.77;;;5.13;;
11907;SDS011;6014;47.690;9.130;2023-04-20T06:06:07;9.57;;;5.13;;
11907;SDS011;6014;47.690;9.130;2023-04-20T06:08:39;7.87;;;4.73;;
11907;SDS011;6014;47.690;9.130;2023-04-20T06:11:08;8.30;;;4.97;;
11907;SDS011;6014;47.690;9.130;2023-04-20T06:13:37;8.23;;;4.80;;
11907;SDS011;6014;47.690;9.130;2023-04-20T06:16:05;7.63;;;4.70;;
11907;SDS011;6014;47.690;9.130;2023-04-20T06:18:37;10.40;;;4.80;;
11907;SDS011;6014;47.690;9.130;2023-04-20T06:21:09;7.43;;;4.30;;
11907;SDS011;6014;47.690;9.130;2023-04-20T06:23:37;7.97;;;5.03;;
11907;SDS011;6014;47.690;9.130;2023-04-20T06:26:06;9.43;;;5.33;;
11907;SDS011;6014;47.690;9.130;2023-04-20T06:28:39;8.93;;;4.97;;
11907;SDS011;6014;47.690;9.130;2023-04-20T06:31:08;7.60;;;4.63;;
11907;SDS011;6014;47.690;9.130;2023-04-20T06:33:45;8.60;;;4.60;;
11907;SDS011;6014;47.690;9.130;2023-04-20T06:36:13;8.13;;;4.40;;
11907;SDS011;6014;47.690;9.130;2023-04-20T06:38:41;6.93;;;4.27;;
11907;SDS011;6014;47.690;9.130;2023-04-20T06:41:16;8.00;;;4.67;;
11907;SDS011;6014;47.690;9.130;2023-04-20T06:43:52;7.90;;;4.50;;
11907;SDS011;6014;47.690;9.130;2023-04-20T06:46:20;8.70;;;4.83;;
11907;SDS011;6014;47.690;9.130;2023-04-20T06:48:50;7.23;;;4.30;;
11907;SDS011;6014;47.690;9.130;2023-04-20T06:51:18;8.27;;;4.40;;
11907;SDS011;6014;47.690;9.130;2023-04-20T06:53:51;7.63;;;4.00;;
11907;SDS011;6014;47.690;9.130;2023-04-20T06:56:19;7.73;;;4.40;;
11907;SDS011;6014;47.690;9.130;2023-04-20T06:58:47;7.20;;;4.40;;
11907;SDS011;6014;47.690;9.130;2023-04-20T07:01:17;7.37;;;4.23;;
11907;SDS011;6014;47.690;9.130;2023-04-20T07:03:45;6.03;;;3.70;;
11907;SDS011;6014;47.690;9.130;2023-04-20T07:06:15;8.03;;;4.07;;
11907;SDS011;6014;47.690;9.130;2023-04-20T07:08:47;6.97;;;4.13;;
11907;SDS011;6014;47.690;9.130;2023-04-20T07:11:25;7.53;;;4.20;;
11907;SDS011;6014;47.690;9.130;2023-04-20T07:13:59;7.77;;;3.97;;
11907;SDS011;6014;47.690;9.130;2023-04-20T07:16:27;6.50;;;4.07;;
11907;SDS011;6014;47.690;9.130;2023-04-20T07:18:55;7.10;;;4.33;;
11907;SDS011;6014;47.690;9.130;2023-04-20T07:21:26;9.70;;;4.73;;
11907;SDS011;6014;47.690;9.130;2023-04-20T07:23:55;7.17;;;3.97;;
11907;SDS011;6014;47.690;9.130;2023-04-20T07:26:24;6.70;;;4.03;;
11907;SDS011;6014;47.690;9.130;2023-04-20T07:28:53;6.90;;;4.27;;
11907;SDS011;6014;47.690;9.130;2023-04-20T07:31:28;8.03;;;4.50;;
11907;SDS011;6014;47.690;9.130;2023-04-20T07:33:59;6.80;;;3.93;;
11907;SDS011;6014;47.690;9.130;2023-04-20T07:36:30;6.00;;;3.57;;
11907;SDS011;6014;47.690;9.130;2023-04-20T07:39:08;6.10;;;3.87;;
11907;SDS011;6014;47.690;9.130;2023-04-20T07:41:36;5.63;;;3.20;;
11907;SDS011;6014;47.690;9.130;2023-04-20T07:44:16;7.33;;;3.40;;
11907;SDS011;6014;47.690;9.130;2023-04-20T07:46:44;6.30;;;3.43;;
11907;SDS011;6014;47.690;9.130;2023-04-20T07:49:12;6.63;;;3.47;;
11907;SDS011;6014;47.690;9.130;2023-04-20T07:51:44;7.27;;;3.40;;
11907;SDS011;6014;47.690;9.130;2023-04-20T07:56:43;5.87;;;3.10;;
11907;SDS011;6014;47.690;9.130;2023-04-20T07:59:11;6.10;;;3.60;;
11907;SDS011;6014;47.690;9.130;2023-04-20T08:01:39;5.43;;;3.23;;
11907;SDS011;6014;47.690;9.130;2023-04-20T08:04:07;6.07;;;3.20;;
11907;SDS011;6014;47.690;9.130;2023-04-20T08:06:38;5.23;;;2.77;;
11907;SDS011;6014;47.690;9.130;2023-04-20T08:09:08;6.07;;;3.37;;
11907;SDS011;6014;47.690;9.130;2023-04-20T08:11:38;5.73;;;3.13;;
11907;SDS011;6014;47.690;9.130;2023-04-20T08:14:06;6.27;;;3.00;;
11907;SDS011;6014;47.690;9.130;2023-04-20T08:16:34;8.47;;;3.67;;
11907;SDS011;6014;47.690;9.130;2023-04-20T08:19:02;5.13;;;2.83;;
11907;SDS011;6014;47.690;9.130;2023-04-20T08:21:35;5.87;;;3.07;;
11907;SDS011;6014;47.690;9.130;2023-04-20T08:24:03;4.33;;;2.50;;
11907;SDS011;6014;47.690;9.130;2023-04-20T08:26:34;4.33;;;2.43;;
11907;SDS011;6014;47.690;9.130;2023-04-20T08:29:02;5.20;;;2.93;;
11907;SDS011;6014;47.690;9.130;2023-04-20T08:31:31;4.87;;;2.73;;
11907;SDS011;6014;47.690;9.130;2023-04-20T08:33:59;5.93;;;3.23;;
11907;SDS011;6014;47.690;9.130;2023-04-20T08:36:28;5.63;;;2.83;;
11907;SDS011;6014;47.690;9.130;2023-04-20T08:39:04;5.97;;;2.83;;
11907;SDS011;6014;47.690;9.130;2023-04-20T08:41:35;4.90;;;2.67;;
11907;SDS011;6014;47.690;9.130;2023-04-20T08:44:06;5.50;;;2.90;;
11907;SDS011;6014;47.690;9.130;2023-04-20T08:46:36;4.50;;;2.50;;
11907;SDS011;6014;47.690;9.130;2023-04-20T08:49:08;6.93;;;2.53;;
11907;SDS011;6014;47.690;9.130;2023-04-20T08:51:38;4.40;;;2.27;;
11907;SDS011;6014;47.690;9.130;2023-04-20T08:54:15;7.27;;;2.80;;
11907;SDS011;6014;47.690;9.130;2023-04-20T08:56:46;5.40;;;2.43;;
11907;SDS011;6014;47.690;9.130;2023-04-20T08:59:14;4.90;;;2.43;;
11907;SDS011;6014;47.690;9.130;2023-04-20T09:01:43;5.27;;;2.13;;
11907;SDS011;6014;47.690;9.130;2023-04-20T09:04:15;3.93;;;1.80;;
11907;SDS011;6014;47.690;9.130;2023-04-20T09:06:46;3.83;;;1.67;;
11907;SDS011;6014;47.690;9.130;2023-04-20T09:09:15;5.10;;;1.97;;
11907;SDS011;6014;47.690;9.130;2023-04-20T09:11:46;3.37;;;1.87;;
11907;SDS011;6014;47.690;9.130;2023-04-20T09:14:14;4.77;;;2.23;;
11907;SDS011;6014;47.690;9.130;2023-04-20T09:16:50;4.60;;;2.07;;
11907;SDS011;6014;47.690;9.130;2023-04-20T09:19:22;4.20;;;2.10;;
11907;SDS011;6014;47.690;9.130;2023-04-20T09:21:51;3.93;;;2.20;;
11907;SDS011;6014;47.690;9.130;2023-04-20T09:24:21;4.30;;;2.37;;
11907;SDS011;6014;47.690;9.130;2023-04-20T09:27:13;4.00;;;2.20;;
11907;SDS011;6014;47.690;9.130;2023-04-20T09:29:42;4.97;;;2.47;;
11907;SDS011;6014;47.690;9.130;2023-04-20T09:32:19;4.47;;;2.20;;
11907;SDS011;6014;47.690;9.130;2023-04-20T09:34:54;3.40;;;1.90;;
11907;SDS011;6014;47.690;9.130;2023-04-20T09:37:22;3.43;;;1.80;;
11907;SDS011;6014;47.690;9.130;2023-04-20T09:39:50;3.90;;;2.20;;
11907;SDS011;6014;47.690;9.130;2023-04-20T09:42:27;3.87;;;2.00;;
11907;SDS011;6014;47.690;9.130;2023-04-20T09:44:56;4.03;;;2.03;;
11907;SDS011;6014;47.690;9.130;2023-04-20T09:47:31;3.27;;;1.80;;
11907;SDS011;6014;47.690;9.130;2023-04-20T09:50:03;3.27;;;1.63;;
11907;SDS011;6014;47.690;9.130;2023-04-20T09:52:53;2.93;;;1.80;;
11907;SDS011;6014;47.690;9.130;2023-04-20T09:55:31;3.03;;;1.67;;
11907;SDS011;6014;47.690;9.130;2023-04-20T09:58:02;3.63;;;1.93;;
11907;SDS011;6014;47.690;9.130;2023-04-20T10:00:33;5.03;;;2.00;;
11907;SDS011;6014;47.690;9.130;2023-04-20T10:03:01;3.83;;;1.73;;
11907;SDS011;6014;47.690;9.130;2023-04-20T10:05:33;3.43;;;1.83;;
11907;SDS011;6014;47.690;9.130;2023-04-20T10:08:02;3.60;;;1.87;;
11907;SDS011;6014;47.690;9.130;2023-04-20T10:10:44;4.00;;;1.87;;
11907;SDS011;6014;47.690;9.130;2023-04-20T10:13:15;3.53;;;1.80;;
11907;SDS011;6014;47.690;9.130;2023-04-20T10:15:47;3.43;;;1.77;;
11907;SDS011;6014;47.690;9.130;2023-04-20T10:20:48;3.30;;;1.90;;
11907;SDS011;6014;47.690;9.130;2023-04-20T10:23:16;2.93;;;1.50;;
11907;SDS011;6014;47.690;9.130;2023-04-20T10:28:42;3.23;;;1.90;;
11907;SDS011;6014;47.690;9.130;2023-04-20T10:31:10;4.10;;;1.80;;
11907;SDS011;6014;47.690;9.130;2023-04-20T10:33:47;5.83;;;2.23;;
11907;SDS011;6014;47.690;9.130;2023-04-20T10:36:23;5.33;;;2.00;;
11907;SDS011;6014;47.690;9.130;2023-04-20T10:38:54;4.47;;;2.00;;
11907;SDS011;6014;47.690;9.130;2023-04-20T10:41:25;3.83;;;1.93;;
11907;SDS011;6014;47.690;9.130;2023-04-20T10:44:05;3.73;;;1.90;;
11907;SDS011;6014;47.690;9.130;2023-04-20T10:46:34;4.97;;;2.00;;
11907;SDS011;6014;47.690;9.130;2023-04-20T10:49:03;3.70;;;1.93;;
11907;SDS011;6014;47.690;9.130;2023-04-20T10:51:31;4.30;;;2.33;;
11907;SDS011;6014;47.690;9.130;2023-04-20T10:53:59;5.17;;;2.13;;
11907;SDS011;6014;47.690;9.130;2023-04-20T10:56:40;4.33;;;1.73;;
11907;SDS011;6014;47.690;9.130;2023-04-20T10:59:11;3.27;;;2.00;;
11907;SDS011;6014;47.690;9.130;2023-04-20T11:01:44;4.27;;;1.80;;
11907;SDS011;6014;47.690;9.130;2023-04-20T11:04:13;4.60;;;2.07;;
11907;SDS011;6014;47.690;9.130;2023-04-20T11:06:45;3.40;;;1.93;;
11907;SDS011;6014;47.690;9.130;2023-04-20T11:09:18;3.20;;;1.60;;
11907;SDS011;6014;47.690;9.130;2023-04-20T11:14:31;3.30;;;1.90;;
11907;SDS011;6014;47.690;9.130;2023-04-20T11:17:02;4.13;;;2.17;;
11907;SDS011;6014;47.690;9.130;2023-04-20T11:19:34;4.50;;;2.10;;
11907;SDS011;6014;47.690;9.130;2023-04-20T11:24:34;2.77;;;1.57;;
11907;SDS011;6014;47.690;9.130;2023-04-20T11:27:02;5.00;;;2.60;;
11907;SDS011;6014;47.690;9.130;2023-04-20T11:29:33;4.80;;;2.13;;
11907;SDS011;6014;47.690;9.130;2023-04-20T11:32:03;4.30;;;2.03;;
11907;SDS011;6014;47.690;9.130;2023-04-20T11:34:38;4.60;;;2.17;;
11907;SDS011;6014;47.690;9.130;2023-04-20T11:37:08;3.20;;;1.70;;
11907;SDS011;6014;47.690;9.130;2023-04-20T11:39:38;3.23;;;1.57;;
11907;SDS011;6014;47.690;9.130;2023-04-20T11:42:06;3.57;;;1.97;;
11907;SDS011;6014;47.690;9.130;2023-04-20T11:44:36;3.47;;;1.80;;
11907;SDS011;6014;47.690;9.130;2023-04-20T11:47:07;4.23;;;2.00;;
11907;SDS011;6014;47.690;9.130;2023-04-20T11:49:43;3.13;;;1.80;;
11907;SDS011;6014;47.690;9.130;2023-04-20T11:52:11;4.70;;;1.67;;
11907;SDS011;6014;47.690;9.130;2023-04-20T11:54:39;3.20;;;1.70;;
11907;SDS011;6014;47.690;9.130;2023-04-20T11:57:07;6.27;;;1.60;;
11907;SDS011;6014;47.690;9.130;2023-04-20T11:59:37;2.13;;;1.33;;
11907;SDS011;6014;47.690;9.130;2023-04-20T12:02:05;4.63;;;2.13;;
11907;SDS011;6014;47.690;9.130;2023-04-20T12:04:33;4.10;;;2.13;;
11907;SDS011;6014;47.690;9.130;2023-04-20T12:07:02;2.07;;;1.30;;
11907;SDS011;6014;47.690;9.130;2023-04-20T12:09:32;2.47;;;1.43;;
11907;SDS011;6014;47.690;9.130;2023-04-20T12:12:04;2.37;;;1.47;;
11907;SDS011;6014;47.690;9.130;2023-04-20T12:14:34;2.57;;;1.53;;
11907;SDS011;6014;47.690;9.130;2023-04-20T12:17:05;3.60;;;1.50;;
11907;SDS011;6014;47.690;9.130;2023-04-20T12:19:34;3.27;;;1.67;;
11907;SDS011;6014;47.690;9.130;2023-04-20T12:22:04;2.40;;;1.30;;
11907;SDS011;6014;47.690;9.130;2023-04-20T12:24:39;2.50;;;1.57;;
11907;SDS011;6014;47.690;9.130;2023-04-20T12:27:08;3.33;;;1.47;;
11907;SDS011;6014;47.690;9.130;2023-04-20T12:32:15;2.50;;;1.57;;
11907;SDS011;6014;47.690;9.130;2023-04-20T12:34:43;3.03;;;1.50;;
11907;SDS011;6014;47.690;9.130;2023-04-20T12:37:11;3.17;;;1.47;;
11907;SDS011;6014;47.690;9.130;2023-04-20T12:42:12;2.77;;;1.53;;
11907;SDS011;6014;47.690;9.130;2023-04-20T12:44:41;3.13;;;1.47;;
11907;SDS011;6014;47.690;9.130;2023-04-20T12:47:12;2.17;;;1.40;;
11907;SDS011;6014;47.690;9.130;2023-04-20T12:49:40;2.60;;;1.40;;
11907;SDS011;6014;47.690;9.130;2023-04-20T12:52:08;2.57;;;1.37;;
11907;SDS011;6014;47.690;9.130;2023-04-20T12:54:42;2.93;;;1.50;;
11907;SDS011;6014;47.690;9.130;2023-04-20T12:57:11;3.40;;;1.40;;
11907;SDS011;6014;47.690;9.130;2023-04-20T12:59:40;2.27;;;1.37;;
11907;SDS011;6014;47.690;9.130;2023-04-20T13:02:10;2.90;;;1.60;;
11907;SDS011;6014;47.690;9.130;2023-04-20T13:04:40;2.17;;;1.40;;
11907;SDS011;6014;47.690;9.130;2023-04-20T13:07:08;2.83;;;1.60;;
11907;SDS011;6014;47.690;9.130;2023-04-20T13:09:37;2.80;;;1.70;;
11907;SDS011;6014;47.690;9.130;2023-04-20T13:12:05;2.60;;;1.50;;
11907;SDS011;6014;47.690;9.130;2023-04-20T13:14:34;4.07;;;1.60;;
11907;SDS011;6014;47.690;9.130;2023-04-20T13:17:02;3.03;;;1.70;;
11907;SDS011;6014;47.690;9.130;2023-04-20T13:19:39;2.83;;;1.43;;
11907;SDS011;6014;47.690;9.130;2023-04-20T13:22:07;3.47;;;2.23;;
11907;SDS011;6014;47.690;9.130;2023-04-20T13:24:41;2.90;;;1.80;;
11907;SDS011;6014;47.690;9.130;2023-04-20T13:27:09;2.83;;;1.60;;
11907;SDS011;6014;47.690;9.130;2023-04-20T13:32:09;3.33;;;1.70;;
11907;SDS011;6014;47.690;9.130;2023-04-20T13:34:46;2.77;;;1.70;;
11907;SDS011;6014;47.690;9.130;2023-04-20T13:37:16;5.20;;;1.47;;
11907;SDS011;6014;47.690;9.130;2023-04-20T13:42:17;3.43;;;1.60;;
11907;SDS011;6014;47.690;9.130;2023-04-20T13:44:45;3.40;;;1.60;;
11907;SDS011;6014;47.690;9.130;2023-04-20T13:47:13;2.80;;;1.53;;
11907;SDS011;6014;47.690;9.130;2023-04-20T13:49:42;5.07;;;1.67;;
11907;SDS011;6014;47.690;9.130;2023-04-20T13:52:12;3.87;;;1.90;;
11907;SDS011;6014;47.690;9.130;2023-04-20T13:54:40;3.33;;;1.70;;
11907;SDS011;6014;47.690;9.130;2023-04-20T13:57:08;3.33;;;1.63;;
11907;SDS011;6014;47.690;9.130;2023-04-20T13:59:40;2.67;;;1.60;;
11907;SDS011;6014;47.690;9.130;2023-04-20T14:02:10;4.40;;;2.67;;
11907;SDS011;6014;47.690;9.130;2023-04-20T14:04:38;5.40;;;3.30;;
11907;SDS011;6014;47.690;9.130;2023-04-20T14:07:06;4.07;;;2.20;;
11907;SDS011;6014;47.690;9.130;2023-04-20T14:09:42;4.03;;;2.03;;
11907;SDS011;6014;47.690;9.130;2023-04-20T14:12:10;2.80;;;1.70;;
11907;SDS011;6014;47.690;9.130;2023-04-20T14:14:39;4.77;;;2.13;;
11907;SDS011;6014;47.690;9.130;2023-04-20T14:17:15;3.83;;;1.90;;
11907;SDS011;6014;47.690;9.130;2023-04-20T14:19:43;3.73;;;1.67;;
11907;SDS011;6014;47.690;9.130;2023-04-20T14:22:12;3.33;;;2.00;;
11907;SDS011;6014;47.690;9.130;2023-04-20T14:24:42;5.43;;;2.87;;
11907;SDS011;6014;47.690;9.130;2023-04-20T14:27:11;4.73;;;2.40;;
11907;SDS011;6014;47.690;9.130;2023-04-20T14:29:40;4.87;;;2.33;;
11907;SDS011;6014;47.690;9.130;2023-04-20T14:32:08;3.73;;;2.17;;
11907;SDS011;6014;47.690;9.130;2023-04-20T14:34:35;4.70;;;2.53;;
11907;SDS011;6014;47.690;9.130;2023-04-20T14:37:06;5.43;;;2.70;;
11907;SDS011;6014;47.690;9.130;2023-04-20T14:39:34;4.73;;;2.30;;
11907;SDS011;6014;47.690;9.130;2023-04-20T14:42:04;4.57;;;2.43;;
11907;SDS011;6014;47.690;9.130;2023-04-20T14:44:33;6.40;;;2.93;;
11907;SDS011;6014;47.690;9.130;2023-04-20T14:47:01;5.20;;;2.80;;
11907;SDS011;6014;47.690;9.130;2023-04-20T14:49:30;6.00;;;3.20;;
11907;SDS011;6014;47.690;9.130;2023-04-20T14:52:02;5.43;;;2.63;;
11907;SDS011;6014;47.690;9.130;2023-04-20T14:54:33;3.80;;;1.90;;
11907;SDS011;6014;47.690;9.130;2023-04-20T14:57:04;4.33;;;2.50;;
11907;SDS011;6014;47.690;9.130;2023-04-20T14:59:35;5.87;;;2.97;;
11907;SDS011;6014;47.690;9.130;2023-04-20T15:02:08;6.43;;;3.63;;
11907;SDS011;6014;47.690;9.130;2023-04-20T15:04:43;5.33;;;2.67;;
11907;SDS011;6014;47.690;9.130;2023-04-20T15:07:15;5.87;;;2.73;;
11907;SDS011;6014;47.690;9.130;2023-04-20T15:09:43;4.00;;;2.10;;
11907;SDS011;6014;47.690;9.130;2023-04-20T15:12:15;4.37;;;2.73;;
11907;SDS011;6014;47.690;9.130;2023-04-20T15:14:43;4.13;;;2.27;;
11907;SDS011;6014;47.690;9.130;2023-04-20T15:17:13;3.80;;;2.20;;
11907;SDS011;6014;47.690;9.130;2023-04-20T15:19:41;4.00;;;2.10;;
11907;SDS011;6014;47.690;9.130;2023-04-20T15:22:17;4.07;;;2.10;;
11907;SDS011;6014;47.690;9.130;2023-04-20T15:24:56;3.40;;;2.00;;
11907;SDS011;6014;47.690;9.130;2023-04-20T15:27:33;4.53;;;1.90;;
11907;SDS011;6014;47.690;9.130;2023-04-20T15:32:44;4.53;;;2.50;;
11907;SDS011;6014;47.690;9.130;2023-04-20T15:35:15;4.87;;;2.40;;
11907;SDS011;6014;47.690;9.130;2023-04-20T15:37:55;3.60;;;2.20;;
11907;SDS011;6014;47.690;9.130;2023-04-20T15:40:25;5.17;;;2.67;;
11907;SDS011;6014;47.690;9.130;2023-04-20T15:42:54;3.73;;;2.10;;
11907;SDS011;6014;47.690;9.130;2023-04-20T15:45:23;3.07;;;1.90;;
11907;SDS011;6014;47.690;9.130;2023-04-20T15:47:51;4.63;;;2.43;;
11907;SDS011;6014;47.690;9.130;2023-04-20T15:50:21;5.23;;;2.80;;
11907;SDS011;6014;47.690;9.130;2023-04-20T15:52:49;4.47;;;2.27;;